sensor_id;sensor_type;location;lat;lon;timestamp;P1;durP1;ratioP1;P2;durP2;ratioP2
12587;SDS011;6359;51.450;7.346;2022-07-29T00:02:00;3.70;;;1.60;;
12587;SDS011;6359;51.450;7.346;2022-07-29T00:04:27;8.82;;;2.03;;
12587;SDS011;6359;51.450;7.346;2022-07-29T00:06:54;2.60;;;1.38;;
12587;SDS011;6359;51.450;7.346;2022-07-29T00:09:21;7.13;;;1.55;;
12587;SDS011;6359;51.450;7.346;2022-07-29T00:11:48;3.10;;;1.45;;
12587;SDS011;6359;51.450;7.346;2022-07-29T00:14:15;4.47;;;1.58;;
12587;SDS011;6359;51.450;7.346;2022-07-29T00:16:42;12.15;;;1.70;;
12587;SDS011;6359;51.450;7.346;2022-07-29T00:19:10;6.18;;;1.55;;
12587;SDS011;6359;51.450;7.346;2022-07-29T00:21:37;7.75;;;1.60;;
12587;SDS011;6359;51.450;7.346;2022-07-29T00:24:04;4.57;;;1.55;;
12587;SDS011;6359;51.450;7.346;2022-07-29T00:26:31;4.30;;;1.70;;
12587;SDS011;6359;51.450;7.346;2022-07-29T00:28:58;6.50;;;1.88;;
12587;SDS011;6359;51.450;7.346;2022-07-29T00:31:25;6.30;;;1.55;;
12587;SDS011;6359;51.450;7.346;2022-07-29T00:33:53;5.57;;;1.77;;
12587;SDS011;6359;51.450;7.346;2022-07-29T00:36:21;11.38;;;1.58;;
12587;SDS011;6359;51.450;7.346;2022-07-29T00:38:47;1.92;;;1.42;;
12587;SDS011;6359;51.450;7.346;2022-07-29T00:41:14;5.43;;;1.60;;
12587;SDS011;6359;51.450;7.346;2022-07-29T00:43:41;4.90;;;1.30;;
12587;SDS011;6359;51.450;7.346;2022-07-29T00:46:09;7.72;;;1.77;;
12587;SDS011;6359;51.450;7.346;2022-07-29T00:48:36;4.95;;;1.50;;
12587;SDS011;6359;51.450;7.346;2022-07-29T00:51:04;3.83;;;1.55;;
12587;SDS011;6359;51.450;7.346;2022-07-29T00:53:33;7.75;;;1.92;;
12587;SDS011;6359;51.450;7.346;2022-07-29T00:56:02;5.45;;;2.10;;
12587;SDS011;6359;51.450;7.346;2022-07-29T00:58:29;6.53;;;1.58;;
12587;SDS011;6359;51.450;7.346;2022-07-29T01:00:57;17.63;;;1.95;;
12587;SDS011;6359;51.450;7.346;2022-07-29T01:03:24;4.43;;;1.60;;
12587;SDS011;6359;51.450;7.346;2022-07-29T01:05:51;4.78;;;1.63;;
12587;SDS011;6359;51.450;7.346;2022-07-29T01:08:20;4.10;;;1.60;;
12587;SDS011;6359;51.450;7.346;2022-07-29T01:10:50;5.78;;;1.73;;
12587;SDS011;6359;51.450;7.346;2022-07-29T01:13:18;4.32;;;1.50;;
12587;SDS011;6359;51.450;7.346;2022-07-29T01:15:47;6.95;;;1.80;;
12587;SDS011;6359;51.450;7.346;2022-07-29T01:18:20;4.80;;;1.52;;
12587;SDS011;6359;51.450;7.346;2022-07-29T01:21:06;6.22;;;1.40;;
12587;SDS011;6359;51.450;7.346;2022-07-29T01:26:43;4.22;;;1.58;;
12587;SDS011;6359;51.450;7.346;2022-07-29T01:29:20;7.88;;;1.38;;
12587;SDS011;6359;51.450;7.346;2022-07-29T01:31:53;4.93;;;1.67;;
12587;SDS011;6359;51.450;7.346;2022-07-29T01:34:24;3.20;;;1.50;;
12587;SDS011;6359;51.450;7.346;2022-07-29T01:36:55;6.53;;;1.83;;
12587;SDS011;6359;51.450;7.346;2022-07-29T01:39:30;4.05;;;1.45;;
12587;SDS011;6359;51.450;7.346;2022-07-29T01:42:02;5.75;;;1.63;;
12587;SDS011;6359;51.450;7.346;2022-07-29T01:44:39;7.47;;;1.88;;
12587;SDS011;6359;51.450;7.346;2022-07-29T01:47:20;3.33;;;1.42;;
12587;SDS011;6359;51.450;7.346;2022-07-29T01:49:52;5.20;;;1.58;;
12587;SDS011;6359;51.450;7.346;2022-07-29T01:52:23;6.28;;;1.55;;
12587;SDS011;6359;51.450;7.346;2022-07-29T01:54:55;7.20;;;1.60;;
12587;SDS011;6359;51.450;7.346;2022-07-29T01:57:25;5.47;;;1.60;;
12587;SDS011;6359;51.450;7.346;2022-07-29T01:59:56;10.35;;;1.50;;
12587;SDS011;6359;51.450;7.346;2022-07-29T02:02:25;4.65;;;1.50;;
12587;SDS011;6359;51.450;7.346;2022-07-29T02:04:54;2.03;;;1.38;;
12587;SDS011;6359;51.450;7.346;2022-07-29T02:07:23;4.57;;;1.38;;
12587;SDS011;6359;51.450;7.346;2022-07-29T02:09:52;5.90;;;1.48;;
12587;SDS011;6359;51.450;7.346;2022-07-29T02:12:21;2.55;;;1.38;;
12587;SDS011;6359;51.450;7.346;2022-07-29T02:14:50;8.65;;;1.80;;
12587;SDS011;6359;51.450;7.346;2022-07-29T02:17:21;4.07;;;1.60;;
12587;SDS011;6359;51.450;7.346;2022-07-29T02:19:52;9.35;;;1.70;;
12587;SDS011;6359;51.450;7.346;2022-07-29T02:22:24;7.53;;;1.70;;
12587;SDS011;6359;51.450;7.346;2022-07-29T02:24:53;6.20;;;1.77;;
12587;SDS011;6359;51.450;7.346;2022-07-29T02:27:21;5.10;;;1.90;;
12587;SDS011;6359;51.450;7.346;2022-07-29T02:29:49;4.82;;;1.80;;
12587;SDS011;6359;51.450;7.346;2022-07-29T02:32:18;15.60;;;1.90;;
12587;SDS011;6359;51.450;7.346;2022-07-29T02:34:47;6.20;;;2.33;;
12587;SDS011;6359;51.450;7.346;2022-07-29T02:37:14;5.80;;;1.48;;
12587;SDS011;6359;51.450;7.346;2022-07-29T02:39:44;7.65;;;1.80;;
12587;SDS011;6359;51.450;7.346;2022-07-29T02:42:14;6.05;;;1.60;;
12587;SDS011;6359;51.450;7.346;2022-07-29T02:44:43;10.45;;;1.83;;
12587;SDS011;6359;51.450;7.346;2022-07-29T02:47:12;5.15;;;1.40;;
12587;SDS011;6359;51.450;7.346;2022-07-29T02:49:47;4.68;;;1.67;;
12587;SDS011;6359;51.450;7.346;2022-07-29T02:52:20;6.05;;;1.70;;
12587;SDS011;6359;51.450;7.346;2022-07-29T02:54:51;3.20;;;1.40;;
12587;SDS011;6359;51.450;7.346;2022-07-29T02:57:28;2.85;;;1.42;;
12587;SDS011;6359;51.450;7.346;2022-07-29T03:00:01;5.57;;;1.98;;
12587;SDS011;6359;51.450;7.346;2022-07-29T03:02:33;4.15;;;1.52;;
12587;SDS011;6359;51.450;7.346;2022-07-29T03:05:04;4.47;;;1.65;;
12587;SDS011;6359;51.450;7.346;2022-07-29T03:07:35;4.75;;;2.08;;
12587;SDS011;6359;51.450;7.346;2022-07-29T03:10:03;6.47;;;1.85;;
12587;SDS011;6359;51.450;7.346;2022-07-29T03:12:32;9.35;;;1.80;;
12587;SDS011;6359;51.450;7.346;2022-07-29T03:14:59;3.55;;;1.60;;
12587;SDS011;6359;51.450;7.346;2022-07-29T03:17:27;2.63;;;1.52;;
12587;SDS011;6359;51.450;7.346;2022-07-29T03:19:57;2.33;;;1.30;;
12587;SDS011;6359;51.450;7.346;2022-07-29T03:22:26;9.95;;;2.00;;
12587;SDS011;6359;51.450;7.346;2022-07-29T03:24:54;5.72;;;1.58;;
12587;SDS011;6359;51.450;7.346;2022-07-29T03:27:20;7.20;;;1.67;;
12587;SDS011;6359;51.450;7.346;2022-07-29T03:29:48;9.00;;;2.08;;
12587;SDS011;6359;51.450;7.346;2022-07-29T03:32:15;6.75;;;1.80;;
12587;SDS011;6359;51.450;7.346;2022-07-29T03:34:42;7.13;;;2.63;;
12587;SDS011;6359;51.450;7.346;2022-07-29T03:37:09;7.68;;;2.00;;
12587;SDS011;6359;51.450;7.346;2022-07-29T03:39:38;4.63;;;1.85;;
12587;SDS011;6359;51.450;7.346;2022-07-29T03:42:08;5.55;;;1.73;;
12587;SDS011;6359;51.450;7.346;2022-07-29T03:44:39;3.05;;;1.63;;
12587;SDS011;6359;51.450;7.346;2022-07-29T03:47:08;2.35;;;1.65;;
12587;SDS011;6359;51.450;7.346;2022-07-29T03:49:37;8.00;;;2.28;;
12587;SDS011;6359;51.450;7.346;2022-07-29T03:52:06;5.63;;;1.85;;
12587;SDS011;6359;51.450;7.346;2022-07-29T03:54:33;3.65;;;2.03;;
12587;SDS011;6359;51.450;7.346;2022-07-29T03:57:02;4.80;;;1.88;;
12587;SDS011;6359;51.450;7.346;2022-07-29T03:59:32;4.57;;;2.08;;
12587;SDS011;6359;51.450;7.346;2022-07-29T04:02:00;3.13;;;1.70;;
12587;SDS011;6359;51.450;7.346;2022-07-29T04:04:32;5.25;;;2.10;;
12587;SDS011;6359;51.450;7.346;2022-07-29T04:07:00;7.07;;;1.65;;
12587;SDS011;6359;51.450;7.346;2022-07-29T04:09:27;8.82;;;1.98;;
12587;SDS011;6359;51.450;7.346;2022-07-29T04:11:54;5.43;;;1.80;;
12587;SDS011;6359;51.450;7.346;2022-07-29T04:14:22;6.15;;;1.70;;
12587;SDS011;6359;51.450;7.346;2022-07-29T04:16:49;4.68;;;1.95;;
12587;SDS011;6359;51.450;7.346;2022-07-29T04:19:16;5.10;;;1.98;;
12587;SDS011;6359;51.450;7.346;2022-07-29T04:21:43;7.85;;;1.65;;
12587;SDS011;6359;51.450;7.346;2022-07-29T04:24:10;6.40;;;2.20;;
12587;SDS011;6359;51.450;7.346;2022-07-29T04:26:37;4.75;;;2.17;;
12587;SDS011;6359;51.450;7.346;2022-07-29T04:29:04;6.93;;;1.75;;
12587;SDS011;6359;51.450;7.346;2022-07-29T04:31:32;7.22;;;2.00;;
12587;SDS011;6359;51.450;7.346;2022-07-29T04:33:59;9.13;;;2.35;;
12587;SDS011;6359;51.450;7.346;2022-07-29T04:36:26;6.10;;;1.75;;
12587;SDS011;6359;51.450;7.346;2022-07-29T04:38:53;7.50;;;2.38;;
12587;SDS011;6359;51.450;7.346;2022-07-29T04:41:20;5.82;;;1.95;;
12587;SDS011;6359;51.450;7.346;2022-07-29T04:43:46;3.88;;;2.35;;
12587;SDS011;6359;51.450;7.346;2022-07-29T04:46:13;6.55;;;1.98;;
12587;SDS011;6359;51.450;7.346;2022-07-29T04:48:42;5.35;;;2.15;;
12587;SDS011;6359;51.450;7.346;2022-07-29T04:51:11;4.30;;;1.90;;
12587;SDS011;6359;51.450;7.346;2022-07-29T04:53:38;4.10;;;1.90;;
12587;SDS011;6359;51.450;7.346;2022-07-29T04:56:05;6.07;;;1.85;;
12587;SDS011;6359;51.450;7.346;2022-07-29T04:58:33;4.57;;;1.83;;
12587;SDS011;6359;51.450;7.346;2022-07-29T05:01:00;4.22;;;1.88;;
12587;SDS011;6359;51.450;7.346;2022-07-29T05:03:28;8.63;;;2.13;;
12587;SDS011;6359;51.450;7.346;2022-07-29T05:05:56;8.85;;;2.60;;
12587;SDS011;6359;51.450;7.346;2022-07-29T05:08:23;7.15;;;2.60;;
12587;SDS011;6359;51.450;7.346;2022-07-29T05:10:50;7.53;;;2.42;;
12587;SDS011;6359;51.450;7.346;2022-07-29T05:13:17;11.10;;;2.58;;
12587;SDS011;6359;51.450;7.346;2022-07-29T05:15:43;5.50;;;2.03;;
12587;SDS011;6359;51.450;7.346;2022-07-29T05:18:10;10.63;;;2.10;;
12587;SDS011;6359;51.450;7.346;2022-07-29T05:20:37;8.02;;;2.50;;
12587;SDS011;6359;51.450;7.346;2022-07-29T05:23:05;5.15;;;2.50;;
12587;SDS011;6359;51.450;7.346;2022-07-29T05:25:32;7.20;;;2.40;;
12587;SDS011;6359;51.450;7.346;2022-07-29T05:28:00;5.35;;;2.20;;
12587;SDS011;6359;51.450;7.346;2022-07-29T05:30:26;5.68;;;2.20;;
12587;SDS011;6359;51.450;7.346;2022-07-29T05:32:53;5.35;;;2.05;;
12587;SDS011;6359;51.450;7.346;2022-07-29T05:35:20;7.80;;;1.88;;
12587;SDS011;6359;51.450;7.346;2022-07-29T05:37:47;6.93;;;2.00;;
12587;SDS011;6359;51.450;7.346;2022-07-29T05:40:16;6.28;;;2.28;;
12587;SDS011;6359;51.450;7.346;2022-07-29T05:42:44;5.28;;;1.83;;
12587;SDS011;6359;51.450;7.346;2022-07-29T05:45:10;5.10;;;2.30;;
12587;SDS011;6359;51.450;7.346;2022-07-29T05:47:37;6.07;;;1.88;;
12587;SDS011;6359;51.450;7.346;2022-07-29T05:50:05;8.57;;;1.88;;
12587;SDS011;6359;51.450;7.346;2022-07-29T05:52:32;6.82;;;2.20;;
12587;SDS011;6359;51.450;7.346;2022-07-29T05:54:59;5.60;;;2.03;;
12587;SDS011;6359;51.450;7.346;2022-07-29T05:57:30;7.78;;;2.15;;
12587;SDS011;6359;51.450;7.346;2022-07-29T05:59:57;5.85;;;2.30;;
12587;SDS011;6359;51.450;7.346;2022-07-29T06:02:24;3.80;;;1.83;;
12587;SDS011;6359;51.450;7.346;2022-07-29T06:04:51;4.40;;;1.90;;
12587;SDS011;6359;51.450;7.346;2022-07-29T06:07:18;4.32;;;2.38;;
12587;SDS011;6359;51.450;7.346;2022-07-29T06:09:45;4.25;;;2.15;;
12587;SDS011;6359;51.450;7.346;2022-07-29T06:12:12;6.93;;;2.08;;
12587;SDS011;6359;51.450;7.346;2022-07-29T06:14:41;4.72;;;2.33;;
12587;SDS011;6359;51.450;7.346;2022-07-29T06:17:07;3.80;;;2.28;;
12587;SDS011;6359;51.450;7.346;2022-07-29T06:19:36;10.13;;;2.05;;
12587;SDS011;6359;51.450;7.346;2022-07-29T06:22:03;3.80;;;2.15;;
12587;SDS011;6359;51.450;7.346;2022-07-29T06:24:31;5.15;;;2.22;;
12587;SDS011;6359;51.450;7.346;2022-07-29T06:26:57;3.83;;;2.10;;
12587;SDS011;6359;51.450;7.346;2022-07-29T06:29:24;9.18;;;2.10;;
12587;SDS011;6359;51.450;7.346;2022-07-29T06:31:53;4.05;;;1.88;;
12587;SDS011;6359;51.450;7.346;2022-07-29T06:34:19;9.18;;;2.28;;
12587;SDS011;6359;51.450;7.346;2022-07-29T06:36:46;5.57;;;2.00;;
12587;SDS011;6359;51.450;7.346;2022-07-29T06:39:14;5.47;;;1.73;;
12587;SDS011;6359;51.450;7.346;2022-07-29T06:41:41;3.70;;;1.83;;
12587;SDS011;6359;51.450;7.346;2022-07-29T06:44:08;5.35;;;2.10;;
12587;SDS011;6359;51.450;7.346;2022-07-29T06:46:35;6.15;;;2.13;;
12587;SDS011;6359;51.450;7.346;2022-07-29T06:49:04;4.05;;;1.98;;
12587;SDS011;6359;51.450;7.346;2022-07-29T06:51:31;6.28;;;2.22;;
12587;SDS011;6359;51.450;7.346;2022-07-29T06:53:58;5.20;;;1.90;;
12587;SDS011;6359;51.450;7.346;2022-07-29T06:56:25;7.82;;;2.10;;
12587;SDS011;6359;51.450;7.346;2022-07-29T06:58:52;6.10;;;2.08;;
12587;SDS011;6359;51.450;7.346;2022-07-29T07:01:19;3.78;;;1.92;;
12587;SDS011;6359;51.450;7.346;2022-07-29T07:03:46;5.25;;;1.92;;
12587;SDS011;6359;51.450;7.346;2022-07-29T07:06:15;3.80;;;1.98;;
12587;SDS011;6359;51.450;7.346;2022-07-29T07:08:42;7.78;;;2.03;;
12587;SDS011;6359;51.450;7.346;2022-07-29T07:11:08;6.95;;;2.10;;
12587;SDS011;6359;51.450;7.346;2022-07-29T07:13:36;6.40;;;2.20;;
12587;SDS011;6359;51.450;7.346;2022-07-29T07:16:03;7.60;;;2.70;;
12587;SDS011;6359;51.450;7.346;2022-07-29T07:18:30;5.65;;;2.22;;
12587;SDS011;6359;51.450;7.346;2022-07-29T07:20:58;5.57;;;1.88;;
12587;SDS011;6359;51.450;7.346;2022-07-29T07:23:26;5.32;;;2.20;;
12587;SDS011;6359;51.450;7.346;2022-07-29T07:25:53;7.93;;;2.17;;
12587;SDS011;6359;51.450;7.346;2022-07-29T07:28:20;8.40;;;2.03;;
12587;SDS011;6359;51.450;7.346;2022-07-29T07:30:47;5.75;;;1.80;;
12587;SDS011;6359;51.450;7.346;2022-07-29T07:33:14;9.63;;;2.40;;
12587;SDS011;6359;51.450;7.346;2022-07-29T07:35:41;4.65;;;1.90;;
12587;SDS011;6359;51.450;7.346;2022-07-29T07:38:09;5.80;;;1.95;;
12587;SDS011;6359;51.450;7.346;2022-07-29T07:40:37;6.75;;;1.83;;
12587;SDS011;6359;51.450;7.346;2022-07-29T07:43:04;7.05;;;2.97;;
12587;SDS011;6359;51.450;7.346;2022-07-29T07:45:32;6.05;;;1.90;;
12587;SDS011;6359;51.450;7.346;2022-07-29T07:47:59;8.13;;;2.53;;
12587;SDS011;6359;51.450;7.346;2022-07-29T07:50:25;5.95;;;2.47;;
12587;SDS011;6359;51.450;7.346;2022-07-29T07:52:53;9.82;;;2.35;;
12587;SDS011;6359;51.450;7.346;2022-07-29T07:55:22;4.47;;;1.90;;
12587;SDS011;6359;51.450;7.346;2022-07-29T07:57:51;4.43;;;2.20;;
12587;SDS011;6359;51.450;7.346;2022-07-29T08:00:18;7.57;;;2.60;;
12587;SDS011;6359;51.450;7.346;2022-07-29T08:02:45;6.20;;;2.08;;
12587;SDS011;6359;51.450;7.346;2022-07-29T08:05:12;6.63;;;2.10;;
12587;SDS011;6359;51.450;7.346;2022-07-29T08:07:42;2.25;;;1.60;;
12587;SDS011;6359;51.450;7.346;2022-07-29T08:10:10;6.10;;;1.95;;
12587;SDS011;6359;51.450;7.346;2022-07-29T08:12:37;4.88;;;1.92;;
12587;SDS011;6359;51.450;7.346;2022-07-29T08:15:07;8.43;;;2.08;;
12587;SDS011;6359;51.450;7.346;2022-07-29T08:17:34;7.22;;;2.03;;
12587;SDS011;6359;51.450;7.346;2022-07-29T08:20:01;14.68;;;2.30;;
12587;SDS011;6359;51.450;7.346;2022-07-29T08:22:29;4.05;;;2.13;;
12587;SDS011;6359;51.450;7.346;2022-07-29T08:24:55;8.00;;;2.50;;
12587;SDS011;6359;51.450;7.346;2022-07-29T08:27:23;13.63;;;2.55;;
12587;SDS011;6359;51.450;7.346;2022-07-29T08:29:51;6.13;;;2.33;;
12587;SDS011;6359;51.450;7.346;2022-07-29T08:32:19;7.82;;;2.40;;
12587;SDS011;6359;51.450;7.346;2022-07-29T08:34:46;8.10;;;2.20;;
12587;SDS011;6359;51.450;7.346;2022-07-29T08:37:13;8.38;;;2.40;;
12587;SDS011;6359;51.450;7.346;2022-07-29T08:39:40;4.28;;;2.30;;
12587;SDS011;6359;51.450;7.346;2022-07-29T08:42:07;7.95;;;2.38;;
12587;SDS011;6359;51.450;7.346;2022-07-29T08:44:34;9.15;;;2.40;;
12587;SDS011;6359;51.450;7.346;2022-07-29T08:47:02;5.82;;;1.92;;
12587;SDS011;6359;51.450;7.346;2022-07-29T08:49:31;7.93;;;2.10;;
12587;SDS011;6359;51.450;7.346;2022-07-29T08:52:00;3.72;;;2.10;;
12587;SDS011;6359;51.450;7.346;2022-07-29T08:54:27;4.85;;;2.63;;
12587;SDS011;6359;51.450;7.346;2022-07-29T08:56:55;8.63;;;2.67;;
12587;SDS011;6359;51.450;7.346;2022-07-29T08:59:24;9.35;;;2.70;;
12587;SDS011;6359;51.450;7.346;2022-07-29T09:01:53;6.82;;;2.85;;
12587;SDS011;6359;51.450;7.346;2022-07-29T09:04:20;8.30;;;2.78;;
12587;SDS011;6359;51.450;7.346;2022-07-29T09:06:52;13.85;;;2.85;;
12587;SDS011;6359;51.450;7.346;2022-07-29T09:09:22;8.80;;;3.00;;
12587;SDS011;6359;51.450;7.346;2022-07-29T09:11:49;6.30;;;2.35;;
12587;SDS011;6359;51.450;7.346;2022-07-29T09:14:18;4.90;;;2.53;;
12587;SDS011;6359;51.450;7.346;2022-07-29T09:16:49;7.07;;;2.20;;
12587;SDS011;6359;51.450;7.346;2022-07-29T09:19:22;7.80;;;2.08;;
12587;SDS011;6359;51.450;7.346;2022-07-29T09:21:51;6.32;;;2.28;;
12587;SDS011;6359;51.450;7.346;2022-07-29T09:24:36;10.45;;;2.85;;
12587;SDS011;6359;51.450;7.346;2022-07-29T09:27:08;8.68;;;2.53;;
12587;SDS011;6359;51.450;7.346;2022-07-29T09:29:57;8.63;;;2.53;;
12587;SDS011;6359;51.450;7.346;2022-07-29T09:32:25;6.53;;;2.50;;
12587;SDS011;6359;51.450;7.346;2022-07-29T09:37:42;7.03;;;2.40;;
12587;SDS011;6359;51.450;7.346;2022-07-29T09:40:11;6.13;;;2.08;;
12587;SDS011;6359;51.450;7.346;2022-07-29T09:42:41;16.85;;;2.55;;
12587;SDS011;6359;51.450;7.346;2022-07-29T09:45:08;4.28;;;2.50;;
12587;SDS011;6359;51.450;7.346;2022-07-29T09:47:43;6.70;;;2.35;;
12587;SDS011;6359;51.450;7.346;2022-07-29T09:50:12;3.75;;;2.03;;
12587;SDS011;6359;51.450;7.346;2022-07-29T09:52:47;8.02;;;2.72;;
12587;SDS011;6359;51.450;7.346;2022-07-29T09:55:16;7.15;;;2.40;;
12587;SDS011;6359;51.450;7.346;2022-07-29T09:57:44;5.93;;;2.30;;
12587;SDS011;6359;51.450;7.346;2022-07-29T10:00:12;7.00;;;2.40;;
12587;SDS011;6359;51.450;7.346;2022-07-29T10:02:41;10.15;;;2.80;;
12587;SDS011;6359;51.450;7.346;2022-07-29T10:05:16;8.95;;;2.33;;
12587;SDS011;6359;51.450;7.346;2022-07-29T10:07:47;4.80;;;2.30;;
12587;SDS011;6359;51.450;7.346;2022-07-29T10:10:19;10.48;;;2.42;;
12587;SDS011;6359;51.450;7.346;2022-07-29T10:12:48;5.43;;;2.50;;
12587;SDS011;6359;51.450;7.346;2022-07-29T10:15:18;5.55;;;3.00;;
12587;SDS011;6359;51.450;7.346;2022-07-29T10:17:47;17.42;;;3.15;;
12587;SDS011;6359;51.450;7.346;2022-07-29T10:20:14;7.50;;;2.80;;
12587;SDS011;6359;51.450;7.346;2022-07-29T10:22:42;7.40;;;2.70;;
12587;SDS011;6359;51.450;7.346;2022-07-29T10:25:10;9.80;;;2.90;;
12587;SDS011;6359;51.450;7.346;2022-07-29T10:27:37;12.43;;;3.30;;
12587;SDS011;6359;51.450;7.346;2022-07-29T10:30:05;6.50;;;3.08;;
12587;SDS011;6359;51.450;7.346;2022-07-29T10:32:35;3.97;;;2.38;;
12587;SDS011;6359;51.450;7.346;2022-07-29T10:35:15;4.95;;;3.00;;
12587;SDS011;6359;51.450;7.346;2022-07-29T10:37:56;11.45;;;3.30;;
12587;SDS011;6359;51.450;7.346;2022-07-29T10:40:39;9.35;;;2.85;;
12587;SDS011;6359;51.450;7.346;2022-07-29T10:43:32;6.55;;;3.10;;
12587;SDS011;6359;51.450;7.346;2022-07-29T10:46:03;4.85;;;2.65;;
12587;SDS011;6359;51.450;7.346;2022-07-29T10:48:31;8.27;;;3.30;;
12587;SDS011;6359;51.450;7.346;2022-07-29T10:50:59;8.18;;;3.40;;
12587;SDS011;6359;51.450;7.346;2022-07-29T10:53:48;7.30;;;3.47;;
12587;SDS011;6359;51.450;7.346;2022-07-29T10:56:27;9.77;;;3.20;;
12587;SDS011;6359;51.450;7.346;2022-07-29T11:01:51;9.13;;;3.75;;
12587;SDS011;6359;51.450;7.346;2022-07-29T11:07:21;5.72;;;3.78;;
12587;SDS011;6359;51.450;7.346;2022-07-29T11:12:48;6.32;;;3.83;;
12587;SDS011;6359;51.450;7.346;2022-07-29T11:15:16;6.03;;;3.90;;
12587;SDS011;6359;51.450;7.346;2022-07-29T11:20:33;7.65;;;4.30;;
12587;SDS011;6359;51.450;7.346;2022-07-29T11:23:01;9.50;;;3.97;;
12587;SDS011;6359;51.450;7.346;2022-07-29T11:25:44;10.68;;;4.00;;
12587;SDS011;6359;51.450;7.346;2022-07-29T11:28:16;12.90;;;4.15;;
12587;SDS011;6359;51.450;7.346;2022-07-29T11:30:47;10.48;;;4.38;;
12587;SDS011;6359;51.450;7.346;2022-07-29T11:33:28;17.60;;;4.20;;
12587;SDS011;6359;51.450;7.346;2022-07-29T11:36:08;9.40;;;4.10;;
12587;SDS011;6359;51.450;7.346;2022-07-29T11:38:36;9.65;;;3.67;;
12587;SDS011;6359;51.450;7.346;2022-07-29T11:41:19;12.45;;;3.55;;
12587;SDS011;6359;51.450;7.346;2022-07-29T11:43:52;10.25;;;3.97;;
12587;SDS011;6359;51.450;7.346;2022-07-29T11:49:10;9.38;;;3.80;;
12587;SDS011;6359;51.450;7.346;2022-07-29T11:51:37;8.15;;;3.63;;
12587;SDS011;6359;51.450;7.346;2022-07-29T11:54:06;7.00;;;3.80;;
12587;SDS011;6359;51.450;7.346;2022-07-29T11:56:39;7.60;;;3.80;;
12587;SDS011;6359;51.450;7.346;2022-07-29T11:59:12;6.95;;;3.53;;
12587;SDS011;6359;51.450;7.346;2022-07-29T12:01:51;4.53;;;3.30;;
12587;SDS011;6359;51.450;7.346;2022-07-29T12:04:18;7.97;;;3.30;;
12587;SDS011;6359;51.450;7.346;2022-07-29T12:06:48;7.82;;;4.40;;
12587;SDS011;6359;51.450;7.346;2022-07-29T12:09:16;10.48;;;4.30;;
12587;SDS011;6359;51.450;7.346;2022-07-29T12:11:43;6.75;;;3.50;;
12587;SDS011;6359;51.450;7.346;2022-07-29T12:14:25;7.60;;;3.10;;
12587;SDS011;6359;51.450;7.346;2022-07-29T12:16:52;6.63;;;2.70;;
12587;SDS011;6359;51.450;7.346;2022-07-29T12:19:19;8.38;;;2.92;;
12587;SDS011;6359;51.450;7.346;2022-07-29T12:21:46;6.28;;;2.72;;
12587;SDS011;6359;51.450;7.346;2022-07-29T12:24:14;5.90;;;2.58;;
12587;SDS011;6359;51.450;7.346;2022-07-29T12:26:51;5.25;;;2.38;;
12587;SDS011;6359;51.450;7.346;2022-07-29T12:29:19;4.97;;;2.10;;
12587;SDS011;6359;51.450;7.346;2022-07-29T12:31:50;7.20;;;2.58;;
12587;SDS011;6359;51.450;7.346;2022-07-29T12:34:19;5.00;;;2.50;;
12587;SDS011;6359;51.450;7.346;2022-07-29T12:36:48;7.28;;;2.35;;
12587;SDS011;6359;51.450;7.346;2022-07-29T12:39:16;5.18;;;2.58;;
12587;SDS011;6359;51.450;7.346;2022-07-29T12:41:43;6.78;;;2.60;;
12587;SDS011;6359;51.450;7.346;2022-07-29T12:44:10;7.93;;;2.95;;
12587;SDS011;6359;51.450;7.346;2022-07-29T12:46:38;8.63;;;2.65;;
12587;SDS011;6359;51.450;7.346;2022-07-29T12:49:06;11.88;;;2.95;;
12587;SDS011;6359;51.450;7.346;2022-07-29T12:51:34;6.53;;;2.83;;
12587;SDS011;6359;51.450;7.346;2022-07-29T12:54:03;7.97;;;2.80;;
12587;SDS011;6359;51.450;7.346;2022-07-29T12:56:32;6.53;;;2.90;;
12587;SDS011;6359;51.450;7.346;2022-07-29T12:58:59;4.00;;;2.47;;
12587;SDS011;6359;51.450;7.346;2022-07-29T13:01:26;8.55;;;2.30;;
12587;SDS011;6359;51.450;7.346;2022-07-29T13:03:53;3.65;;;2.30;;
12587;SDS011;6359;51.450;7.346;2022-07-29T13:09:11;5.95;;;2.42;;
12587;SDS011;6359;51.450;7.346;2022-07-29T13:11:40;4.65;;;2.45;;
12587;SDS011;6359;51.450;7.346;2022-07-29T13:14:09;6.82;;;2.22;;
12587;SDS011;6359;51.450;7.346;2022-07-29T13:16:59;6.95;;;2.65;;
12587;SDS011;6359;51.450;7.346;2022-07-29T13:19:34;8.48;;;2.83;;
12587;SDS011;6359;51.450;7.346;2022-07-29T13:22:04;6.20;;;2.47;;
12587;SDS011;6359;51.450;7.346;2022-07-29T13:24:31;5.25;;;2.67;;
12587;SDS011;6359;51.450;7.346;2022-07-29T13:26:58;6.32;;;2.80;;
12587;SDS011;6359;51.450;7.346;2022-07-29T13:29:25;5.53;;;2.95;;
12587;SDS011;6359;51.450;7.346;2022-07-29T13:31:52;10.55;;;3.65;;
12587;SDS011;6359;51.450;7.346;2022-07-29T13:34:20;9.68;;;2.45;;
12587;SDS011;6359;51.450;7.346;2022-07-29T13:36:49;4.72;;;2.50;;
12587;SDS011;6359;51.450;7.346;2022-07-29T13:39:17;8.10;;;2.42;;
12587;SDS011;6359;51.450;7.346;2022-07-29T13:41:44;10.88;;;2.70;;
12587;SDS011;6359;51.450;7.346;2022-07-29T13:44:11;6.13;;;2.53;;
12587;SDS011;6359;51.450;7.346;2022-07-29T13:46:38;5.60;;;2.70;;
12587;SDS011;6359;51.450;7.346;2022-07-29T13:49:05;5.00;;;2.45;;
12587;SDS011;6359;51.450;7.346;2022-07-29T13:51:32;9.32;;;2.28;;
12587;SDS011;6359;51.450;7.346;2022-07-29T13:53:58;3.92;;;2.33;;
12587;SDS011;6359;51.450;7.346;2022-07-29T13:56:27;9.90;;;2.55;;
12587;SDS011;6359;51.450;7.346;2022-07-29T13:58:54;9.65;;;5.43;;
12587;SDS011;6359;51.450;7.346;2022-07-29T14:01:21;9.18;;;3.08;;
12587;SDS011;6359;51.450;7.346;2022-07-29T14:03:47;4.88;;;2.45;;
12587;SDS011;6359;51.450;7.346;2022-07-29T14:06:15;4.70;;;2.20;;
12587;SDS011;6359;51.450;7.346;2022-07-29T14:08:42;7.88;;;1.80;;
12587;SDS011;6359;51.450;7.346;2022-07-29T14:11:09;10.02;;;2.83;;
12587;SDS011;6359;51.450;7.346;2022-07-29T14:13:37;10.70;;;3.35;;
12587;SDS011;6359;51.450;7.346;2022-07-29T14:16:04;8.02;;;2.70;;
12587;SDS011;6359;51.450;7.346;2022-07-29T14:18:32;5.75;;;2.55;;
12587;SDS011;6359;51.450;7.346;2022-07-29T14:20:59;6.65;;;2.72;;
12587;SDS011;6359;51.450;7.346;2022-07-29T14:23:26;5.10;;;2.55;;
12587;SDS011;6359;51.450;7.346;2022-07-29T14:25:52;6.80;;;2.22;;
12587;SDS011;6359;51.450;7.346;2022-07-29T14:28:19;4.97;;;2.45;;
12587;SDS011;6359;51.450;7.346;2022-07-29T14:30:48;5.03;;;2.42;;
12587;SDS011;6359;51.450;7.346;2022-07-29T14:33:15;5.00;;;2.38;;
12587;SDS011;6359;51.450;7.346;2022-07-29T14:35:42;8.18;;;2.33;;
12587;SDS011;6359;51.450;7.346;2022-07-29T14:38:09;3.25;;;2.10;;
12587;SDS011;6359;51.450;7.346;2022-07-29T14:40:36;4.40;;;2.13;;
12587;SDS011;6359;51.450;7.346;2022-07-29T14:43:03;3.28;;;2.05;;
12587;SDS011;6359;51.450;7.346;2022-07-29T14:45:30;5.53;;;2.40;;
12587;SDS011;6359;51.450;7.346;2022-07-29T14:47:58;8.73;;;2.75;;
12587;SDS011;6359;51.450;7.346;2022-07-29T14:50:26;3.90;;;2.10;;
12587;SDS011;6359;51.450;7.346;2022-07-29T14:52:53;6.22;;;2.30;;
12587;SDS011;6359;51.450;7.346;2022-07-29T14:55:20;8.05;;;2.10;;
12587;SDS011;6359;51.450;7.346;2022-07-29T14:57:47;4.03;;;1.83;;
12587;SDS011;6359;51.450;7.346;2022-07-29T15:00:15;7.38;;;2.10;;
12587;SDS011;6359;51.450;7.346;2022-07-29T15:02:46;4.55;;;2.53;;
12587;SDS011;6359;51.450;7.346;2022-07-29T15:05:14;11.38;;;2.30;;
12587;SDS011;6359;51.450;7.346;2022-07-29T15:07:41;5.13;;;2.00;;
12587;SDS011;6359;51.450;7.346;2022-07-29T15:10:08;6.40;;;2.15;;
12587;SDS011;6359;51.450;7.346;2022-07-29T15:12:35;6.35;;;2.03;;
12587;SDS011;6359;51.450;7.346;2022-07-29T15:15:02;7.25;;;2.10;;
12587;SDS011;6359;51.450;7.346;2022-07-29T15:17:30;4.43;;;1.90;;
12587;SDS011;6359;51.450;7.346;2022-07-29T15:19:57;9.60;;;2.28;;
12587;SDS011;6359;51.450;7.346;2022-07-29T15:22:25;11.05;;;2.60;;
12587;SDS011;6359;51.450;7.346;2022-07-29T15:24:52;4.47;;;1.90;;
12587;SDS011;6359;51.450;7.346;2022-07-29T15:27:19;6.00;;;2.35;;
12587;SDS011;6359;51.450;7.346;2022-07-29T15:29:46;6.65;;;2.58;;
12587;SDS011;6359;51.450;7.346;2022-07-29T15:32:13;7.75;;;2.25;;
12587;SDS011;6359;51.450;7.346;2022-07-29T15:34:41;5.90;;;2.22;;